Time;durP1;ratioP1;P1;durP2;ratioP2;P2;SDS_P1;SDS_P2;PMS_P1;PMS_P2;Temp;Humidity;BMP_temperature;BMP_pressure;BME280_temperature;BME280_humidity;BME280_pressure;Samples;Min_cycle;Max_cycle;Signal;HPM_P1;HPM_P2
2022/03/22 00:01:21;;;;;;;17.90;6.40;;;10.90;96.30;;;;;;5105909;27;20106;-67
2022/03/22 00:03:47;;;;;;;18.15;6.28;;;10.90;96.30;;;;;;5114710;27;20023;-67
2022/03/22 00:06:13;;;;;;;14.75;6.63;;;10.90;96.20;;;;;;5111767;27;20026;-67
2022/03/22 00:08:38;;;;;;;13.88;5.15;;;10.70;96.40;;;;;;5110570;27;20498;-67
2022/03/22 00:11:04;;;;;;;16.25;6.13;;;10.80;96.50;;;;;;5114938;27;20063;-67
2022/03/22 00:13:30;;;;;;;16.17;5.82;;;10.80;96.70;;;;;;5118079;27;20060;-67
2022/03/22 00:15:56;;;;;;;17.50;5.97;;;10.70;96.10;;;;;;5110748;27;20050;-67
2022/03/22 00:18:23;;;;;;;19.88;6.20;;;10.70;96.10;;;;;;5115713;27;20471;-66
2022/03/22 00:20:49;;;;;;;20.25;6.15;;;10.70;95.90;;;;;;5111905;27;20487;-66
2022/03/22 00:23:16;;;;;;;14.80;5.55;;;10.70;96.00;;;;;;5116651;27;20030;-66
2022/03/22 00:25:41;;;;;;;18.10;5.70;;;10.70;96.00;;;;;;5116255;27;20066;-67
2022/03/22 00:28:07;;;;;;;15.98;5.95;;;10.60;96.30;;;;;;5111587;27;20067;-67
2022/03/22 00:30:35;;;;;;;16.30;5.55;;;10.50;96.00;;;;;;5119323;27;20050;-67
2022/03/22 00:33:04;;;;;;;19.80;6.22;;;10.40;96.20;;;;;;5114731;27;20801;-67
2022/03/22 00:35:33;;;;;;;12.52;5.45;;;10.50;96.30;;;;;;5115064;27;20031;-67
2022/03/22 00:37:59;;;;;;;13.57;5.47;;;10.50;96.50;;;;;;5111998;27;20099;-66
2022/03/22 00:40:27;;;;;;;13.75;4.57;;;10.50;95.90;;;;;;5116065;27;20019;-66
2022/03/22 00:42:53;;;;;;;12.98;5.18;;;10.40;95.80;;;;;;5115928;27;20023;-67
2022/03/22 00:45:22;;;;;;;23.00;6.93;;;10.50;95.90;;;;;;5112024;27;20407;-66
2022/03/22 00:47:50;;;;;;;16.20;5.57;;;10.50;95.90;;;;;;5118903;27;20035;-66
2022/03/22 00:50:19;;;;;;;15.10;5.50;;;10.50;95.80;;;;;;5113592;27;20058;-67
2022/03/22 00:52:45;;;;;;;18.00;5.68;;;10.40;95.70;;;;;;5113322;27;20082;-67
2022/03/22 00:55:14;;;;;;;19.00;5.95;;;10.30;96.10;;;;;;5115032;27;20023;-67
2022/03/22 00:57:42;;;;;;;18.15;5.63;;;10.30;95.50;;;;;;5115303;27;20066;-67
2022/03/22 01:00:10;;;;;;;17.58;6.07;;;10.30;95.60;;;;;;5114254;27;20024;-67
2022/03/22 01:02:46;;;;;;;18.60;6.43;;;10.30;95.50;;;;;;5119537;27;20491;-67
2022/03/22 01:05:17;;;;;;;16.40;4.95;;;10.20;95.70;;;;;;5115906;27;20030;-67
2022/03/22 01:07:45;;;;;;;18.98;5.43;;;10.30;95.70;;;;;;5111695;27;20070;-67
2022/03/22 01:10:12;;;;;;;15.32;5.05;;;10.30;95.20;;;;;;5113536;28;20038;-67
2022/03/22 01:12:39;;;;;;;14.27;5.38;;;10.30;95.10;;;;;;5114892;27;20485;-66
2022/03/22 01:15:11;;;;;;;14.57;4.93;;;10.30;94.70;;;;;;5114276;28;20024;-67
2022/03/22 01:17:37;;;;;;;14.35;5.07;;;10.30;94.60;;;;;;5114501;27;20083;-67
2022/03/22 01:20:05;;;;;;;14.05;5.13;;;10.20;95.10;;;;;;5114061;27;20077;-67
2022/03/22 01:22:32;;;;;;;12.05;4.70;;;10.10;94.80;;;;;;5116908;28;20035;-67
2022/03/22 01:24:59;;;;;;;11.15;4.25;;;10.00;95.70;;;;;;5112548;28;20115;-67
2022/03/22 01:27:26;;;;;;;15.40;5.20;;;9.90;95.90;;;;;;5112250;27;20024;-67
2022/03/22 01:29:52;;;;;;;14.20;5.38;;;9.80;95.90;;;;;;5113300;28;20047;-67
2022/03/22 01:32:18;;;;;;;18.27;5.07;;;9.70;95.90;;;;;;5116692;28;20039;-67
2022/03/22 01:34:44;;;;;;;12.77;5.22;;;9.50;96.40;;;;;;5115000;28;20498;-67
2022/03/22 01:37:10;;;;;;;12.05;5.07;;;9.40;96.40;;;;;;5113358;28;20106;-67
2022/03/22 01:39:36;;;;;;;13.77;5.20;;;9.20;97.10;;;;;;5119033;27;20368;-67
2022/03/22 01:42:03;;;;;;;18.35;6.38;;;9.10;97.20;;;;;;5117352;28;20051;-67
2022/03/22 01:44:29;;;;;;;24.75;5.63;;;9.10;97.10;;;;;;5116944;27;20565;-67
2022/03/22 01:47:03;;;;;;;14.70;4.50;;;9.10;97.20;;;;;;5115395;28;20047;-67
2022/03/22 01:49:29;;;;;;;20.95;4.85;;;9.20;96.60;;;;;;5117890;27;20059;-67
2022/03/22 01:51:56;;;;;;;15.13;4.60;;;9.20;96.80;;;;;;5120393;27;20024;-67
2022/03/22 01:54:22;;;;;;;12.38;4.95;;;9.20;96.40;;;;;;5116807;27;20096;-67
2022/03/22 01:56:49;;;;;;;14.90;4.80;;;9.50;95.40;;;;;;5116514;27;20483;-66
2022/03/22 01:59:15;;;;;;;25.23;5.40;;;9.60;94.90;;;;;;5114532;27;20031;-66
2022/03/22 02:07:13;;;;;;;15.82;5.05;;;9.50;94.70;;;;;;5115750;27;20039;-67
2022/03/22 02:09:38;;;;;;;12.65;4.65;;;9.60;94.80;;;;;;5118978;27;20024;-66
2022/03/22 02:12:05;;;;;;;13.35;4.93;;;9.50;94.80;;;;;;5118958;27;20020;-66
2022/03/22 02:14:30;;;;;;;14.70;4.80;;;9.30;95.80;;;;;;5118124;27;20411;-66
2022/03/22 02:16:56;;;;;;;13.00;4.72;;;9.30;95.80;;;;;;5116255;27;20019;-67
2022/03/22 02:19:21;;;;;;;12.82;4.43;;;9.20;96.00;;;;;;5118922;27;20214;-67
2022/03/22 02:21:58;;;;;;;19.35;5.03;;;8.90;96.90;;;;;;5119627;27;20050;-67
2022/03/22 02:24:23;;;;;;;12.50;5.35;;;8.90;96.60;;;;;;5117942;27;20380;-67
2022/03/22 02:26:49;;;;;;;15.90;5.95;;;8.90;96.90;;;;;;5118653;27;20032;-67
2022/03/22 02:29:14;;;;;;;13.65;4.40;;;8.70;97.10;;;;;;5114150;27;20031;-67
2022/03/22 02:31:40;;;;;;;13.27;5.10;;;8.60;96.80;;;;;;5119871;27;20080;-67
2022/03/22 02:34:06;;;;;;;13.75;5.75;;;8.40;98.20;;;;;;5115467;27;20033;-67
2022/03/22 02:36:31;;;;;;;13.98;5.18;;;8.40;97.70;;;;;;5115122;27;20032;-67
2022/03/22 02:38:57;;;;;;;14.73;4.90;;;8.20;98.30;;;;;;5117104;27;20031;-67
2022/03/22 02:41:27;;;;;;;12.60;4.43;;;8.00;98.30;;;;;;5117262;27;20122;-67
2022/03/22 02:43:53;;;;;;;14.45;5.47;;;7.90;98.60;;;;;;5118163;27;20031;-67
2022/03/22 02:46:19;;;;;;;15.27;5.80;;;7.90;99.40;;;;;;5116807;27;20486;-67
2022/03/22 02:48:45;;;;;;;14.60;5.22;;;7.70;99.70;;;;;;5121414;27;20027;-67
2022/03/22 02:51:12;;;;;;;18.88;5.47;;;7.80;99.70;;;;;;5118098;27;20027;-66
2022/03/22 02:53:38;;;;;;;13.98;4.40;;;7.80;99.70;;;;;;5117227;27;20015;-66
2022/03/22 02:56:04;;;;;;;14.07;4.47;;;7.80;99.70;;;;;;5118340;27;20145;-66
2022/03/22 02:58:29;;;;;;;12.60;5.25;;;7.80;99.00;;;;;;5117761;27;20032;-66
2022/03/22 03:00:55;;;;;;;16.35;4.45;;;8.00;99.00;;;;;;5113509;27;20482;-66
2022/03/22 03:03:22;;;;;;;12.70;4.70;;;7.80;99.80;;;;;;5120827;27;20031;-66
2022/03/22 03:05:52;;;;;;;14.38;5.13;;;7.90;98.70;;;;;;5118360;27;20133;-66
2022/03/22 03:08:18;;;;;;;15.35;4.70;;;7.70;99.70;;;;;;5117483;27;20025;-66
2022/03/22 03:10:45;;;;;;;18.08;4.82;;;7.70;98.10;;;;;;5113099;27;20110;-66
2022/03/22 03:13:10;;;;;;;14.55;4.93;;;7.90;98.80;;;;;;5111295;27;20023;-66
2022/03/22 03:15:36;;;;;;;17.83;4.93;;;7.60;99.10;;;;;;5109587;27;20038;-66
2022/03/22 03:18:02;;;;;;;15.90;4.70;;;7.70;99.30;;;;;;5111210;27;20080;-66
2022/03/22 03:20:28;;;;;;;14.75;4.72;;;7.70;99.00;;;;;;5111169;27;20765;-66
2022/03/22 03:22:54;;;;;;;15.23;4.80;;;7.60;98.90;;;;;;5111859;27;20828;-66
2022/03/22 03:25:19;;;;;;;15.75;4.70;;;7.40;99.40;;;;;;5108398;27;20031;-66
2022/03/22 03:27:45;;;;;;;13.10;5.00;;;7.40;99.10;;;;;;5112564;27;20039;-66
2022/03/22 03:30:11;;;;;;;12.20;4.43;;;7.40;99.60;;;;;;5110390;27;20043;-66
2022/03/22 03:32:37;;;;;;;16.48;4.90;;;7.40;98.90;;;;;;5110230;27;20023;-66
2022/03/22 03:35:03;;;;;;;19.58;4.88;;;7.40;99.40;;;;;;5112095;27;20146;-66
2022/03/22 03:37:32;;;;;;;14.05;4.80;;;7.40;99.60;;;;;;5115732;27;20031;-67
2022/03/22 03:39:58;;;;;;;12.25;4.45;;;7.20;99.90;;;;;;5116351;27;20023;-66
2022/03/22 03:42:24;;;;;;;13.32;5.47;;;7.20;99.30;;;;;;5124631;27;20498;-66
2022/03/22 03:47:34;;;;;;;14.55;4.45;;;7.10;99.90;;;;;;5122185;27;20030;-66
2022/03/22 03:50:05;;;;;;;11.98;4.93;;;7.00;99.90;;;;;;5119356;27;20041;-66
2022/03/22 03:52:34;;;;;;;9.48;4.07;;;7.00;99.90;;;;;;5117505;27;20039;-66
2022/03/22 03:55:01;;;;;;;14.68;5.13;;;7.10;99.90;;;;;;5118711;27;20015;-66
2022/03/22 03:57:27;;;;;;;14.20;4.68;;;7.00;99.70;;;;;;5114465;27;20848;-66
2022/03/22 03:59:55;;;;;;;14.13;4.22;;;7.20;99.90;;;;;;5117886;27;20028;-66
2022/03/22 04:02:21;;;;;;;13.75;4.68;;;7.20;99.60;;;;;;5114382;27;20028;-66
2022/03/22 04:04:51;;;;;;;10.52;4.45;;;7.10;99.80;;;;;;5117852;27;20019;-66
2022/03/22 04:07:18;;;;;;;9.20;4.18;;;7.30;98.80;;;;;;5117252;27;20072;-66
2022/03/22 04:09:44;;;;;;;12.75;5.03;;;7.10;99.80;;;;;;5116929;27;20031;-66
2022/03/22 04:12:12;;;;;;;16.65;5.60;;;7.00;99.90;;;;;;5116004;27;20039;-66
2022/03/22 04:14:37;;;;;;;12.98;5.05;;;6.90;99.90;;;;;;5116535;27;20024;-66
2022/03/22 04:17:03;;;;;;;10.80;4.55;;;6.90;99.90;;;;;;5112356;27;20026;-66
2022/03/22 04:19:29;;;;;;;18.25;5.15;;;6.70;99.90;;;;;;5114041;27;20027;-66
2022/03/22 04:21:55;;;;;;;12.52;4.07;;;6.80;99.90;;;;;;5115512;27;20093;-66
2022/03/22 04:24:21;;;;;;;13.50;5.20;;;6.60;99.90;;;;;;5115847;27;20028;-66
2022/03/22 04:26:47;;;;;;;15.05;4.57;;;6.50;99.90;;;;;;5117809;27;20030;-66
2022/03/22 04:34:45;;;;;;;12.35;4.65;;;6.40;99.90;;;;;;5116176;27;20031;-66
2022/03/22 04:37:12;;;;;;;11.75;4.95;;;6.50;99.90;;;;;;5113033;27;20035;-66
2022/03/22 04:39:40;;;;;;;13.55;4.97;;;6.30;99.90;;;;;;5116710;27;20543;-66
2022/03/22 04:42:06;;;;;;;12.10;3.92;;;6.30;99.90;;;;;;5115052;27;20463;-66
2022/03/22 04:44:33;;;;;;;16.17;5.45;;;6.30;99.90;;;;;;5113854;27;20475;-66
2022/03/22 04:46:59;;;;;;;15.68;5.15;;;6.30;99.90;;;;;;5118133;27;20030;-66
2022/03/22 04:49:26;;;;;;;15.98;4.70;;;6.20;99.90;;;;;;5117110;27;20027;-66
2022/03/22 04:57:21;;;;;;;14.18;5.45;;;6.10;99.90;;;;;;5114517;27;20204;-66
2022/03/22 04:59:47;;;;;;;11.93;4.57;;;6.20;99.90;;;;;;5109878;27;20109;-66
2022/03/22 05:02:13;;;;;;;12.52;4.88;;;6.20;99.90;;;;;;5117117;27;20027;-66
2022/03/22 05:04:39;;;;;;;11.18;4.20;;;6.10;99.90;;;;;;5117180;27;20024;-66
2022/03/22 05:07:05;;;;;;;15.38;4.57;;;6.00;99.90;;;;;;5119879;27;20023;-66
2022/03/22 05:09:31;;;;;;;9.40;4.00;;;6.00;99.90;;;;;;5112661;27;20031;-66
2022/03/22 05:11:57;;;;;;;13.40;4.63;;;5.90;99.90;;;;;;5118349;27;20034;-66
2022/03/22 05:14:23;;;;;;;12.63;5.60;;;5.90;99.90;;;;;;5110879;27;20016;-66
2022/03/22 05:16:49;;;;;;;16.45;4.95;;;5.90;99.90;;;;;;5114331;27;20019;-66
2022/03/22 05:19:15;;;;;;;12.43;4.53;;;6.00;99.90;;;;;;5112374;28;20361;-67
2022/03/22 05:21:40;;;;;;;11.05;4.57;;;6.20;99.90;;;;;;5117350;28;20094;-66
2022/03/22 05:24:07;;;;;;;9.57;3.97;;;6.10;99.90;;;;;;5118508;27;20141;-67
2022/03/22 05:26:33;;;;;;;8.90;3.58;;;6.10;99.90;;;;;;5114584;27;20488;-67
2022/03/22 05:28:58;;;;;;;16.48;5.00;;;5.90;99.90;;;;;;5116659;27;20039;-67
2022/03/22 05:31:24;;;;;;;10.38;4.57;;;5.80;99.90;;;;;;5113021;27;20449;-67
2022/03/22 05:33:50;;;;;;;10.20;4.38;;;5.60;99.90;;;;;;5114195;27;20059;-67
2022/03/22 05:36:16;;;;;;;8.95;4.38;;;5.70;99.90;;;;;;5114861;27;20031;-67
2022/03/22 05:38:42;;;;;;;11.63;4.68;;;5.70;99.90;;;;;;5119644;27;20530;-67
2022/03/22 05:41:08;;;;;;;13.52;4.68;;;5.60;99.90;;;;;;5120736;27;20090;-67
2022/03/22 05:43:35;;;;;;;13.90;5.38;;;5.60;99.90;;;;;;5117794;27;20019;-67
2022/03/22 05:46:04;;;;;;;11.20;4.57;;;5.60;99.90;;;;;;5113094;27;20024;-67
2022/03/22 05:48:29;;;;;;;14.88;4.35;;;5.70;99.90;;;;;;5113387;27;20032;-67
2022/03/22 05:50:56;;;;;;;13.43;5.63;;;5.50;99.90;;;;;;5116961;27;20446;-67
2022/03/22 05:53:21;;;;;;;13.07;4.13;;;5.50;99.90;;;;;;5111152;27;20110;-67
2022/03/22 05:55:48;;;;;;;11.90;4.70;;;5.40;99.90;;;;;;5113051;27;20102;-67
2022/03/22 05:58:14;;;;;;;13.27;5.28;;;5.40;99.90;;;;;;5109190;27;20030;-67
2022/03/22 06:00:39;;;;;;;10.32;3.88;;;5.60;99.90;;;;;;5116651;27;20038;-67
2022/03/22 06:03:05;;;;;;;7.60;3.53;;;5.50;99.90;;;;;;5119562;27;20110;-66
2022/03/22 06:05:31;;;;;;;14.38;4.40;;;5.50;99.90;;;;;;5111673;27;20031;-66
2022/03/22 06:07:58;;;;;;;11.73;4.22;;;5.50;99.90;;;;;;5113259;27;20039;-66
2022/03/22 06:10:24;;;;;;;12.55;4.93;;;5.70;99.90;;;;;;5113917;27;20020;-66
2022/03/22 06:12:55;;;;;;;10.40;3.80;;;5.60;99.90;;;;;;5111315;27;20043;-66
2022/03/22 06:15:24;;;;;;;10.80;4.20;;;5.70;99.90;;;;;;5110558;27;20031;-66
2022/03/22 06:17:51;;;;;;;16.58;3.92;;;5.80;99.90;;;;;;5116294;27;20052;-66
2022/03/22 06:20:20;;;;;;;13.82;5.07;;;6.10;99.90;;;;;;5114893;27;20019;-66
2022/03/22 06:22:46;;;;;;;18.90;4.43;;;6.30;99.90;;;;;;5110239;27;20054;-67
2022/03/22 06:25:17;;;;;;;13.23;4.47;;;6.60;99.90;;;;;;5114545;27;20023;-66
2022/03/22 06:27:44;;;;;;;10.15;4.80;;;6.70;99.90;;;;;;5114807;27;20031;-67
2022/03/22 06:30:12;;;;;;;10.82;4.57;;;6.90;99.90;;;;;;5112924;27;20051;-67
2022/03/22 06:32:51;;;;;;;8.90;3.85;;;7.00;99.90;;;;;;5113725;27;20063;-67
2022/03/22 06:35:37;;;;;;;16.08;4.15;;;7.10;99.90;;;;;;5110956;27;20098;-67
2022/03/22 06:38:03;;;;;;;15.20;6.13;;;7.30;99.90;;;;;;5120435;27;20112;-67
2022/03/22 06:40:33;;;;;;;11.23;4.35;;;7.40;99.90;;;;;;5125520;27;20486;-67
2022/03/22 06:43:03;;;;;;;12.45;4.32;;;7.30;99.90;;;;;;5121541;27;20023;-67
2022/03/22 06:45:29;;;;;;;17.63;5.40;;;7.30;99.90;;;;;;5119138;27;20054;-67
2022/03/22 06:47:54;;;;;;;10.98;4.10;;;7.40;99.90;;;;;;5115969;27;20495;-66
2022/03/22 06:50:21;;;;;;;8.98;3.50;;;7.50;99.90;;;;;;5116421;27;20559;-67
2022/03/22 06:52:46;;;;;;;8.63;3.70;;;7.70;99.90;;;;;;5117837;27;20019;-66
2022/03/22 06:55:14;;;;;;;12.32;3.97;;;8.00;98.00;;;;;;5115310;27;20498;-67
2022/03/22 06:57:40;;;;;;;14.80;4.80;;;8.10;98.60;;;;;;5113710;27;20053;-67
2022/03/22 07:00:11;;;;;;;23.30;5.93;;;8.30;98.20;;;;;;5118719;27;20480;-67
2022/03/22 07:02:39;;;;;;;12.20;4.03;;;8.40;97.70;;;;;;5113388;27;20024;-67
2022/03/22 07:05:06;;;;;;;15.85;4.85;;;8.50;98.40;;;;;;5117830;27;20020;-67
2022/03/22 07:07:32;;;;;;;12.32;3.95;;;8.80;96.70;;;;;;5117389;27;20055;-67
2022/03/22 07:09:57;;;;;;;15.90;4.32;;;9.00;96.40;;;;;;5113051;27;20488;-66
2022/03/22 07:12:23;;;;;;;13.07;4.75;;;9.00;96.90;;;;;;5118985;27;20067;-67
2022/03/22 07:14:49;;;;;;;17.45;5.20;;;9.00;96.30;;;;;;5115922;27;20436;-67
2022/03/22 07:17:14;;;;;;;15.10;3.88;;;9.10;96.50;;;;;;5110719;27;20026;-67
2022/03/22 07:19:40;;;;;;;14.68;5.50;;;9.20;97.00;;;;;;5116912;27;20035;-67
2022/03/22 07:22:06;;;;;;;19.85;5.75;;;9.30;97.90;;;;;;5112763;27;20514;-67
2022/03/22 07:24:33;;;;;;;17.92;5.78;;;9.50;98.40;;;;;;5112910;27;20027;-67
2022/03/22 07:26:59;;;;;;;19.02;6.30;;;9.60;98.90;;;;;;5117153;27;20024;-67
2022/03/22 07:29:24;;;;;;;16.10;5.38;;;9.60;98.90;;;;;;5112646;27;20070;-67
2022/03/22 07:31:50;;;;;;;13.82;4.55;;;9.70;98.40;;;;;;5114578;27;20108;-67
2022/03/22 07:34:17;;;;;;;12.93;4.53;;;9.80;98.80;;;;;;5108536;27;20505;-67
2022/03/22 07:36:44;;;;;;;14.40;5.38;;;9.90;98.90;;;;;;5110116;27;20030;-67
2022/03/22 07:39:11;;;;;;;16.02;5.55;;;10.00;98.90;;;;;;5110889;27;20138;-67
2022/03/22 07:41:38;;;;;;;11.50;4.82;;;10.10;98.70;;;;;;5112104;27;20026;-67
2022/03/22 07:44:07;;;;;;;15.15;5.38;;;10.20;97.90;;;;;;5115514;27;20378;-67
2022/03/22 07:46:33;;;;;;;16.50;5.45;;;10.40;96.90;;;;;;5117436;27;20031;-67
2022/03/22 07:52:58;;;;;;;11.45;4.28;;;10.60;94.40;;;;;;5116332;27;20055;-67
2022/03/22 07:54:30;;;;;;;17.52;6.05;;;11.00;93.30;;;;;;5131106;27;20084;-67
2022/03/22 07:56:55;;;;;;;19.05;5.13;;;11.30;90.90;;;;;;5132184;27;20479;-67
2022/03/22 07:59:22;;;;;;;12.20;4.97;;;11.40;91.40;;;;;;5113247;27;20088;-67
2022/03/22 08:01:48;;;;;;;15.02;4.90;;;11.60;90.20;;;;;;5116938;27;20072;-67
2022/03/22 08:04:13;;;;;;;13.50;4.63;;;11.70;88.60;;;;;;5119306;27;20070;-67
2022/03/22 08:06:39;;;;;;;17.77;4.78;;;11.90;87.80;;;;;;5118179;27;20642;-67
2022/03/22 08:09:05;;;;;;;11.23;3.53;;;11.90;86.20;;;;;;5124734;27;20624;-67
2022/03/22 08:11:30;;;;;;;13.77;4.57;;;12.10;84.60;;;;;;5113397;27;20076;-67
2022/03/22 08:13:59;;;;;;;15.63;5.88;;;12.20;85.20;;;;;;5119099;27;20036;-67
2022/03/22 08:16:26;;;;;;;11.30;3.78;;;12.30;85.30;;;;;;5120316;27;20090;-67
2022/03/22 08:18:52;;;;;;;13.85;4.78;;;12.40;83.60;;;;;;5115185;27;20102;-67
2022/03/22 08:21:18;;;;;;;20.52;5.40;;;12.60;83.00;;;;;;5114213;27;20164;-67
2022/03/22 08:23:44;;;;;;;14.48;4.80;;;12.80;83.50;;;;;;5117022;27;20489;-67
2022/03/22 08:26:09;;;;;;;10.23;4.25;;;12.90;81.80;;;;;;5116780;27;20039;-67
2022/03/22 08:28:35;;;;;;;15.13;4.75;;;13.00;80.90;;;;;;5115768;27;20077;-67
2022/03/22 08:31:01;;;;;;;13.48;4.82;;;13.20;81.80;;;;;;5118603;27;20027;-67
2022/03/22 08:33:28;;;;;;;14.88;5.10;;;13.50;80.80;;;;;;5117505;27;20075;-67
2022/03/22 08:35:54;;;;;;;14.30;5.13;;;13.80;77.70;;;;;;5113490;27;20487;-67
2022/03/22 08:38:21;;;;;;;14.55;5.15;;;14.40;76.40;;;;;;5115912;27;20040;-67
2022/03/22 08:40:50;;;;;;;15.48;4.30;;;14.70;75.90;;;;;;5112298;27;20027;-67
2022/03/22 08:43:16;;;;;;;14.13;5.38;;;15.30;74.20;;;;;;5117107;27;20838;-67
2022/03/22 08:45:42;;;;;;;11.65;4.68;;;15.70;71.80;;;;;;5113677;27;20122;-67
2022/03/22 08:48:10;;;;;;;13.60;4.72;;;15.90;70.30;;;;;;5119548;27;20402;-67
2022/03/22 08:50:38;;;;;;;12.98;4.72;;;16.20;70.90;;;;;;5116776;27;20372;-67
2022/03/22 08:53:05;;;;;;;13.88;4.45;;;16.60;69.30;;;;;;5115542;27;20028;-67
2022/03/22 08:55:31;;;;;;;13.93;3.92;;;17.40;67.90;;;;;;5113816;27;20032;-67
2022/03/22 08:57:56;;;;;;;12.27;4.32;;;18.20;67.00;;;;;;5115122;27;20418;-67
2022/03/22 09:00:22;;;;;;;16.02;4.72;;;19.30;64.50;;;;;;5117403;27;20028;-67
2022/03/22 09:02:50;;;;;;;13.88;4.57;;;19.60;61.30;;;;;;5112583;27;20114;-68
2022/03/22 09:08:05;;;;;;;14.98;4.18;;;19.50;61.00;;;;;;5115908;27;20038;-67
2022/03/22 09:10:30;;;;;;;11.55;4.10;;;19.20;59.00;;;;;;5111015;27;20115;-67
2022/03/22 09:12:57;;;;;;;12.07;4.35;;;19.50;59.80;;;;;;5124328;27;20113;-68
2022/03/22 09:15:26;;;;;;;13.30;4.60;;;19.90;57.40;;;;;;5127228;27;20027;-68
2022/03/22 09:17:52;;;;;;;10.37;3.73;;;20.00;57.80;;;;;;5130409;27;20027;-68
2022/03/22 09:20:19;;;;;;;13.77;4.38;;;21.20;56.60;;;;;;5127219;27;20271;-68
2022/03/22 09:22:48;;;;;;;11.57;3.97;;;22.20;54.80;;;;;;5127743;27;20030;-67
2022/03/22 09:25:14;;;;;;;12.40;4.45;;;21.60;55.50;;;;;;5138896;27;20079;-68
2022/03/22 09:27:43;;;;;;;17.52;5.00;;;20.80;56.50;;;;;;5124797;27;20837;-68
2022/03/22 09:30:10;;;;;;;14.07;4.60;;;20.90;56.00;;;;;;5129043;27;20044;-68
2022/03/22 09:32:37;;;;;;;13.95;4.85;;;20.70;56.40;;;;;;5124911;27;20142;-68
2022/03/22 09:35:07;;;;;;;12.60;4.85;;;20.80;57.20;;;;;;5122630;27;20054;-68
2022/03/22 09:37:36;;;;;;;12.05;4.47;;;21.70;55.40;;;;;;5115424;27;20080;-68
2022/03/22 09:40:03;;;;;;;11.48;4.13;;;21.60;55.60;;;;;;5117845;27;20037;-68
2022/03/22 09:42:30;;;;;;;18.83;4.50;;;22.90;54.30;;;;;;5117736;27;20102;-68
2022/03/22 09:45:00;;;;;;;15.10;4.63;;;23.10;52.20;;;;;;5123103;27;20029;-68
2022/03/22 09:47:26;;;;;;;12.23;4.70;;;22.40;53.20;;;;;;5123008;27;20024;-68
2022/03/22 09:49:53;;;;;;;13.98;3.80;;;22.90;53.10;;;;;;5123186;27;20573;-68
2022/03/22 09:52:20;;;;;;;13.90;4.57;;;22.40;53.10;;;;;;5119134;27;20458;-67
2022/03/22 09:54:46;;;;;;;15.40;5.15;;;22.20;53.30;;;;;;5125011;27;20028;-67
2022/03/22 09:57:12;;;;;;;11.80;5.20;;;22.40;51.80;;;;;;5121255;27;20046;-68
2022/03/22 09:59:38;;;;;;;10.43;3.92;;;22.40;51.70;;;;;;5115146;27;20037;-67
2022/03/22 10:02:05;;;;;;;11.43;4.57;;;22.80;52.60;;;;;;5117477;27;20054;-67
2022/03/22 10:04:42;;;;;;;12.10;4.45;;;22.50;51.80;;;;;;5122142;27;20022;-68
2022/03/22 10:07:18;;;;;;;11.55;4.38;;;22.50;50.70;;;;;;5121917;27;20027;-68
2022/03/22 10:09:55;;;;;;;11.52;4.15;;;21.80;51.90;;;;;;5125400;27;20027;-68
2022/03/22 10:12:31;;;;;;;12.23;4.35;;;20.10;54.30;;;;;;5140743;27;20043;-68
2022/03/22 10:15:09;;;;;;;11.45;4.70;;;21.30;52.40;;;;;;5127865;27;20905;-68
2022/03/22 10:17:35;;;;;;;11.73;4.20;;;22.40;50.10;;;;;;5122624;27;20050;-68
2022/03/22 10:20:01;;;;;;;11.90;4.85;;;23.10;50.50;;;;;;5124441;27;20033;-68
2022/03/22 10:22:27;;;;;;;9.63;4.10;;;23.20;50.30;;;;;;5127107;27;20366;-68
2022/03/22 10:24:58;;;;;;;12.55;4.30;;;22.80;52.50;;;;;;5123017;27;20098;-68
2022/03/22 10:27:53;;;;;;;13.43;5.05;;;23.50;50.80;;;;;;5146672;27;20032;-67
2022/03/22 10:30:19;;;;;;;11.53;4.47;;;19.90;54.80;;;;;;5122424;27;20061;-67
2022/03/22 10:32:50;;;;;;;12.25;4.35;;;20.70;55.90;;;;;;5131502;27;20043;-68
2022/03/22 10:35:20;;;;;;;13.27;4.45;;;23.10;54.40;;;;;;5135376;27;20019;-67
2022/03/22 10:38:07;;;;;;;14.35;4.30;;;22.50;54.60;;;;;;5125738;27;20437;-67
2022/03/22 10:40:42;;;;;;;13.63;5.15;;;21.10;55.00;;;;;;5131422;27;20039;-67
2022/03/22 10:43:16;;;;;;;22.10;4.80;;;20.90;55.30;;;;;;5124534;27;20039;-67
2022/03/22 10:45:45;;;;;;;13.65;4.05;;;20.40;55.40;;;;;;5130587;27;20076;-67
2022/03/22 10:48:16;;;;;;;10.25;3.78;;;21.40;54.50;;;;;;5127000;27;20039;-67
2022/03/22 10:50:45;;;;;;;13.85;4.25;;;23.00;54.70;;;;;;5136169;27;20539;-68
2022/03/22 10:53:14;;;;;;;15.10;4.97;;;24.00;51.10;;;;;;5128926;27;20027;-67
2022/03/22 10:55:41;;;;;;;12.82;4.55;;;23.90;53.70;;;;;;5115047;27;20032;-67
2022/03/22 10:58:08;;;;;;;11.10;4.00;;;22.10;53.40;;;;;;5119965;27;20030;-67
2022/03/22 11:00:36;;;;;;;13.50;5.32;;;22.60;53.00;;;;;;5115508;27;20036;-68
2022/03/22 11:03:04;;;;;;;11.57;3.78;;;22.50;53.80;;;;;;5119861;27;20039;-67
2022/03/22 11:05:30;;;;;;;13.73;3.67;;;24.70;52.70;;;;;;5124937;27;20513;-67
2022/03/22 11:07:57;;;;;;;9.45;3.50;;;22.90;51.00;;;;;;5131884;27;20035;-68
2022/03/22 11:10:29;;;;;;;13.48;3.88;;;21.90;55.10;;;;;;5112940;27;20027;-68
2022/03/22 11:12:59;;;;;;;12.77;4.25;;;23.80;53.00;;;;;;5109455;27;20027;-67
2022/03/22 11:15:27;;;;;;;9.90;3.80;;;24.40;51.70;;;;;;5109882;27;20039;-67
2022/03/22 11:17:55;;;;;;;12.90;4.65;;;24.30;51.50;;;;;;5115831;27;20311;-67
2022/03/22 11:20:23;;;;;;;10.27;4.13;;;22.90;52.40;;;;;;5118479;27;20183;-67
2022/03/22 11:22:55;;;;;;;11.88;4.32;;;22.10;53.90;;;;;;5126514;27;20338;-67
2022/03/22 11:25:31;;;;;;;9.73;3.70;;;22.90;53.50;;;;;;5138435;27;20035;-67
2022/03/22 11:28:09;;;;;;;10.13;3.42;;;24.20;51.90;;;;;;5133083;27;20051;-67
2022/03/22 11:30:37;;;;;;;12.38;4.40;;;25.80;50.80;;;;;;5129695;27;20043;-67
2022/03/22 11:35:58;;;;;;;14.85;3.65;;;22.50;53.00;;;;;;5127812;27;20037;-67
2022/03/22 11:38:46;;;;;;;11.10;3.53;;;22.80;53.30;;;;;;5114762;27;20093;-67
2022/03/22 11:44:24;;;;;;;11.23;3.40;;;25.50;50.40;;;;;;5113322;27;20046;-67
2022/03/22 11:47:08;;;;;;;8.40;3.10;;;23.30;52.30;;;;;;5122885;27;20030;-67
2022/03/22 11:50:07;;;;;;;9.82;3.47;;;25.50;51.70;;;;;;5118856;27;20501;-67
2022/03/22 11:52:33;;;;;;;10.00;3.22;;;22.40;52.30;;;;;;5094632;27;20608;-67
2022/03/22 11:55:01;;;;;;;9.40;3.53;;;22.80;52.10;;;;;;5119699;27;20102;-67
2022/03/22 11:57:28;;;;;;;12.48;3.70;;;24.20;53.40;;;;;;5111482;27;20080;-67
2022/03/22 11:59:55;;;;;;;12.20;3.53;;;26.20;51.60;;;;;;5111205;27;20091;-67
2022/03/22 12:02:27;;;;;;;9.48;3.35;;;26.10;49.50;;;;;;5110940;27;20027;-67
2022/03/22 12:04:57;;;;;;;14.43;3.53;;;26.60;49.00;;;;;;5109246;27;20051;-67
2022/03/22 12:07:37;;;;;;;11.02;3.03;;;26.30;48.90;;;;;;5115893;27;20023;-67
2022/03/22 12:10:10;;;;;;;10.35;2.83;;;26.30;48.70;;;;;;5126587;27;20091;-67
2022/03/22 12:12:37;;;;;;;8.52;2.70;;;26.30;48.60;;;;;;5118479;27;20048;-67
2022/03/22 12:15:08;;;;;;;9.32;2.83;;;23.60;50.00;;;;;;5120815;27;20496;-67
2022/03/22 12:17:36;;;;;;;10.23;2.45;;;24.40;49.50;;;;;;5120806;27;20027;-67
2022/03/22 12:20:13;;;;;;;8.45;2.30;;;25.10;48.00;;;;;;5111219;27;20023;-67
2022/03/22 12:22:45;;;;;;;9.57;3.25;;;25.10;46.60;;;;;;5103951;27;20023;-67
2022/03/22 12:25:13;;;;;;;7.60;2.60;;;24.40;47.10;;;;;;5104856;27;20039;-67
2022/03/22 12:27:53;;;;;;;10.60;3.40;;;25.80;48.20;;;;;;5109946;27;20384;-67
2022/03/22 12:30:20;;;;;;;;;;;24.70;48.10;;;;;;5111710;27;20035;-66
2022/03/22 12:32:48;;;;;;;8.23;2.53;;;25.60;47.60;;;;;;5144010;27;19922;-67
2022/03/22 12:35:14;;;;;;;8.35;2.90;;;24.80;46.50;;;;;;5109544;27;20047;-67
2022/03/22 12:37:39;;;;;;;10.85;3.28;;;25.70;45.80;;;;;;5108169;27;20650;-67
2022/03/22 12:40:06;;;;;;;21.27;3.90;;;23.10;47.80;;;;;;5106020;28;20023;-66
2022/03/22 12:42:32;;;;;;;10.75;3.63;;;22.20;50.90;;;;;;5109398;27;20125;-67
2022/03/22 12:44:58;;;;;;;9.45;2.90;;;23.20;48.60;;;;;;5113380;27;20058;-67
2022/03/22 12:47:25;;;;;;;10.18;3.47;;;22.70;50.10;;;;;;5108535;27;20074;-67
2022/03/22 12:49:51;;;;;;;10.30;3.22;;;22.60;48.40;;;;;;5110221;27;20111;-67
2022/03/22 12:52:16;;;;;;;11.13;3.35;;;24.60;47.40;;;;;;5112627;27;20103;-67
2022/03/22 12:54:43;;;;;;;9.90;3.53;;;24.50;47.80;;;;;;5111918;27;20817;-67
2022/03/22 12:57:12;;;;;;;9.43;3.40;;;23.90;46.70;;;;;;5113710;27;20030;-67
2022/03/22 12:59:39;;;;;;;10.05;3.60;;;23.60;49.80;;;;;;5116068;27;20992;-67
2022/03/22 13:02:06;;;;;;;10.60;3.80;;;25.20;48.50;;;;;;5116157;27;20068;-67
2022/03/22 13:04:36;;;;;;;11.65;3.65;;;25.90;45.90;;;;;;5118039;27;20483;-66
2022/03/22 13:07:06;;;;;;;10.93;3.60;;;22.30;49.20;;;;;;5125843;27;20024;-66
2022/03/22 13:12:19;;;;;;;10.73;2.97;;;24.20;48.80;;;;;;5133213;27;20045;-67
2022/03/22 13:17:35;;;;;;;9.07;3.22;;;25.40;47.90;;;;;;5123485;27;20039;-67
2022/03/22 13:20:13;;;;;;;10.35;3.30;;;24.00;47.40;;;;;;5123973;27;20050;-67
2022/03/22 13:22:53;;;;;;;11.73;3.53;;;25.70;47.70;;;;;;5119406;27;20106;-67